Time;durP1;ratioP1;P1;durP2;ratioP2;P2;SDS_P1;SDS_P2;PMS_P1;PMS_P2;Temp;Humidity;BMP_temperature;BMP_pressure;BME280_temperature;BME280_humidity;BME280_pressure;Samples;Min_cycle;Max_cycle;Signal;HPM_P1;HPM_P2
2022/01/29 00:01:05;;;;;;;67.78;38.55;;;7.50;99.90;;;;;;5055139;28;20025;-81
2022/01/29 00:03:31;;;;;;;62.85;36.63;;;7.50;99.90;;;;;;5055143;28;20099;-81
2022/01/29 00:05:58;;;;;;;70.95;38.22;;;7.60;99.90;;;;;;5054960;28;20029;-81
2022/01/29 00:08:25;;;;;;;70.90;38.58;;;7.60;99.90;;;;;;5055220;28;20025;-81
2022/01/29 00:11:01;;;;;;;70.38;39.35;;;7.50;99.90;;;;;;5054778;28;20025;-81
2022/01/29 00:13:26;;;;;;;68.40;38.20;;;7.50;99.90;;;;;;5055137;28;20017;-81
2022/01/29 00:15:52;;;;;;;69.82;38.47;;;7.50;99.90;;;;;;5054922;28;20094;-81
2022/01/29 00:18:18;;;;;;;72.28;38.72;;;7.50;99.90;;;;;;5054872;28;20028;-79
2022/01/29 00:20:43;;;;;;;73.18;40.45;;;7.50;99.90;;;;;;5054718;28;20033;-79
2022/01/29 00:23:09;;;;;;;70.93;40.22;;;7.50;99.90;;;;;;5055077;28;20100;-80
2022/01/29 00:25:34;;;;;;;70.88;39.63;;;7.50;99.90;;;;;;5059933;28;20089;-80
2022/01/29 00:28:00;;;;;;;73.60;41.35;;;7.40;99.90;;;;;;5078209;28;20012;-79
2022/01/29 00:30:35;;;;;;;71.78;40.63;;;7.40;99.90;;;;;;5068150;28;20056;-80
2022/01/29 00:33:00;;;;;;;78.13;41.85;;;7.40;99.90;;;;;;5054710;28;20032;-79
2022/01/29 00:35:26;;;;;;;80.88;43.88;;;7.40;99.90;;;;;;5054129;28;20111;-79
2022/01/29 00:37:52;;;;;;;78.00;43.15;;;7.40;99.90;;;;;;5053909;28;20083;-79
2022/01/29 00:40:17;;;;;;;73.78;42.00;;;7.40;99.90;;;;;;5054165;28;20029;-79
2022/01/29 00:42:43;;;;;;;75.03;42.53;;;7.40;99.90;;;;;;5054434;28;20091;-80
2022/01/29 00:45:09;;;;;;;81.22;43.25;;;7.40;99.90;;;;;;5054444;28;20094;-79
2022/01/29 00:47:34;;;;;;;81.90;44.13;;;7.30;99.90;;;;;;5053889;28;20472;-79
2022/01/29 00:50:00;;;;;;;83.18;45.17;;;7.30;99.90;;;;;;5054123;28;20043;-79
2022/01/29 00:52:26;;;;;;;73.57;43.30;;;7.30;99.90;;;;;;5053866;28;20112;-79
2022/01/29 00:54:51;;;;;;;88.93;46.05;;;7.30;99.90;;;;;;5054084;28;20036;-80
2022/01/29 00:57:17;;;;;;;77.85;43.08;;;7.30;99.90;;;;;;5053723;28;20049;-80
2022/01/29 00:59:43;;;;;;;79.25;43.35;;;7.30;99.90;;;;;;5053871;28;20074;-79
2022/01/29 01:02:09;;;;;;;80.70;45.53;;;7.30;99.90;;;;;;5053822;28;20043;-79
2022/01/29 01:04:38;;;;;;;80.35;45.42;;;7.30;99.90;;;;;;5053585;28;20029;-80
2022/01/29 01:07:08;;;;;;;79.53;44.60;;;7.30;99.90;;;;;;5053632;28;20029;-80
2022/01/29 01:09:34;;;;;;;76.65;45.30;;;7.30;99.90;;;;;;5054125;28;20029;-80
2022/01/29 01:11:59;;;;;;;78.88;44.17;;;7.30;99.90;;;;;;5054074;28;20495;-81
2022/01/29 01:14:25;;;;;;;75.97;43.35;;;7.30;99.90;;;;;;5053777;28;20062;-79
2022/01/29 01:16:51;;;;;;;82.65;43.55;;;7.30;99.90;;;;;;5053325;28;20027;-79
2022/01/29 01:19:16;;;;;;;86.03;45.25;;;7.30;99.90;;;;;;5053879;28;20025;-80
2022/01/29 01:21:42;;;;;;;80.75;44.63;;;7.30;99.90;;;;;;5053773;28;20029;-79
2022/01/29 01:24:08;;;;;;;79.10;42.45;;;7.30;99.90;;;;;;5064992;28;20027;-80
2022/01/29 01:26:33;;;;;;;81.25;43.92;;;7.40;99.90;;;;;;5077404;28;20013;-85
2022/01/29 01:28:59;;;;;;;83.40;43.22;;;7.40;99.90;;;;;;5062924;28;20091;-79
2022/01/29 01:31:25;;;;;;;83.40;43.67;;;7.30;99.90;;;;;;5053815;28;20104;-80
2022/01/29 01:33:51;;;;;;;76.25;43.38;;;7.30;99.90;;;;;;5053230;28;20421;-79
2022/01/29 01:36:20;;;;;;;83.68;43.97;;;7.40;99.90;;;;;;5053218;28;20028;-79
2022/01/29 01:38:51;;;;;;;79.07;43.72;;;7.40;99.90;;;;;;5053520;28;20362;-79
2022/01/29 01:41:22;;;;;;;74.53;42.60;;;7.40;99.90;;;;;;5053583;28;20036;-79
2022/01/29 01:43:48;;;;;;;77.40;41.85;;;7.40;99.90;;;;;;5053364;28;20388;-78
2022/01/29 01:46:14;;;;;;;80.18;42.22;;;7.40;99.90;;;;;;5053525;28;20033;-79
2022/01/29 01:48:39;;;;;;;86.43;42.72;;;7.40;99.90;;;;;;5053500;28;20427;-79
2022/01/29 01:51:06;;;;;;;71.55;43.17;;;7.40;99.90;;;;;;5053163;28;20037;-79
2022/01/29 01:53:32;;;;;;;73.88;41.08;;;7.40;99.90;;;;;;5053494;28;20040;-79
2022/01/29 01:55:58;;;;;;;80.82;42.53;;;7.40;99.90;;;;;;5052818;28;20057;-79
2022/01/29 01:58:24;;;;;;;80.63;42.15;;;7.40;99.90;;;;;;5052874;28;20036;-78
2022/01/29 02:00:50;;;;;;;69.95;41.88;;;7.40;99.90;;;;;;5053126;28;20067;-80
2022/01/29 02:03:15;;;;;;;76.43;41.92;;;7.40;99.90;;;;;;5053041;28;20033;-80
2022/01/29 02:05:41;;;;;;;72.82;42.13;;;7.40;99.90;;;;;;5053233;28;20491;-81
2022/01/29 02:08:08;;;;;;;74.88;41.50;;;7.40;99.90;;;;;;5053241;28;20025;-80
2022/01/29 02:10:34;;;;;;;72.35;41.65;;;7.40;99.90;;;;;;5053400;28;20392;-80
2022/01/29 02:13:03;;;;;;;69.70;41.78;;;7.40;99.90;;;;;;5053008;28;20041;-81
2022/01/29 02:15:29;;;;;;;76.28;42.78;;;7.50;99.90;;;;;;5053118;28;20473;-80
2022/01/29 02:17:55;;;;;;;69.63;40.70;;;7.50;99.90;;;;;;5053332;28;20032;-80
2022/01/29 02:20:26;;;;;;;74.88;41.72;;;7.50;99.90;;;;;;5053602;28;20107;-80
2022/01/29 02:22:52;;;;;;;70.30;42.85;;;7.50;99.90;;;;;;5065662;28;20021;-80
2022/01/29 02:25:44;;;;;;;71.60;43.15;;;7.50;99.90;;;;;;5078988;28;20039;-80
2022/01/29 02:28:15;;;;;;;72.25;42.42;;;7.50;99.90;;;;;;5057107;28;20033;-80
2022/01/29 02:30:44;;;;;;;70.28;42.28;;;7.50;99.90;;;;;;5056960;28;20017;-80
2022/01/29 02:33:13;;;;;;;71.97;41.85;;;7.50;99.90;;;;;;5056527;28;20542;-80
2022/01/29 02:35:41;;;;;;;72.45;42.40;;;7.50;99.90;;;;;;5056875;28;20033;-80
2022/01/29 02:38:10;;;;;;;70.10;42.55;;;7.40;99.90;;;;;;5056534;28;20021;-80
2022/01/29 02:40:45;;;;;;;65.93;40.55;;;7.40;99.90;;;;;;5056671;28;20025;-80
2022/01/29 02:43:21;;;;;;;64.93;41.70;;;7.40;99.90;;;;;;5056855;28;20040;-81
2022/01/29 02:45:47;;;;;;;62.28;40.78;;;7.50;99.90;;;;;;5056687;28;20028;-81
2022/01/29 02:48:14;;;;;;;65.35;40.80;;;7.50;99.90;;;;;;5056625;28;20032;-80
2022/01/29 02:50:40;;;;;;;70.10;41.70;;;7.50;99.90;;;;;;5056155;28;20025;-81
2022/01/29 02:53:07;;;;;;;66.25;41.22;;;7.50;99.90;;;;;;5056456;28;20025;-79
2022/01/29 02:55:32;;;;;;;63.95;40.03;;;7.50;99.90;;;;;;5056333;28;20037;-79
2022/01/29 02:57:58;;;;;;;63.00;40.47;;;7.50;99.90;;;;;;5056002;28;20484;-80
2022/01/29 03:00:24;;;;;;;60.28;39.08;;;7.60;99.90;;;;;;5056409;28;20032;-80
2022/01/29 03:02:50;;;;;;;63.08;39.47;;;7.60;99.90;;;;;;5055862;28;20049;-80
2022/01/29 03:05:17;;;;;;;57.65;37.47;;;7.60;99.90;;;;;;5055966;28;20110;-79
2022/01/29 03:07:43;;;;;;;61.78;39.15;;;7.60;99.90;;;;;;5056233;28;20028;-79
2022/01/29 03:10:08;;;;;;;59.05;38.25;;;7.60;99.90;;;;;;5056010;28;20029;-79
2022/01/29 03:12:37;;;;;;;57.72;37.50;;;7.60;99.90;;;;;;5056114;28;20029;-80
2022/01/29 03:15:04;;;;;;;53.25;35.40;;;7.50;99.90;;;;;;5056149;28;20408;-80
2022/01/29 03:17:29;;;;;;;62.25;38.70;;;7.50;99.90;;;;;;5055753;28;20116;-80
2022/01/29 03:19:55;;;;;;;58.90;38.85;;;7.50;99.90;;;;;;5057879;28;20472;-80
2022/01/29 03:22:20;;;;;;;56.22;37.15;;;7.50;99.90;;;;;;5067454;28;20029;-80
2022/01/29 03:24:46;;;;;;;56.25;37.50;;;7.50;99.90;;;;;;5072033;28;20028;-80
2022/01/29 03:27:12;;;;;;;57.20;36.90;;;7.50;99.90;;;;;;5056051;28;20032;-80
2022/01/29 03:29:37;;;;;;;52.70;34.58;;;7.60;99.90;;;;;;5055853;28;20025;-80
2022/01/29 03:32:04;;;;;;;53.97;35.97;;;7.50;99.90;;;;;;5055318;28;20388;-79
2022/01/29 03:34:29;;;;;;;51.97;36.72;;;7.50;99.90;;;;;;5054362;28;20125;-80
2022/01/29 03:36:56;;;;;;;61.67;37.67;;;7.60;99.90;;;;;;5055476;28;20108;-80
2022/01/29 03:39:24;;;;;;;55.80;36.25;;;7.60;99.90;;;;;;5055531;28;20040;-79
2022/01/29 03:41:50;;;;;;;53.63;36.00;;;7.50;99.90;;;;;;5055262;28;20029;-79
2022/01/29 03:44:16;;;;;;;53.30;34.40;;;7.50;99.90;;;;;;5055341;28;20025;-79
2022/01/29 03:46:43;;;;;;;58.17;37.22;;;7.50;99.90;;;;;;5055225;28;20036;-79
2022/01/29 03:49:08;;;;;;;54.35;35.58;;;7.50;99.90;;;;;;5055215;28;20032;-79
2022/01/29 03:51:34;;;;;;;57.90;37.10;;;7.50;99.90;;;;;;5055094;28;20029;-80
2022/01/29 03:54:00;;;;;;;52.40;33.78;;;7.60;99.90;;;;;;5055296;28;20021;-79
2022/01/29 03:56:25;;;;;;;53.33;34.97;;;7.60;99.90;;;;;;5055082;28;20527;-79
2022/01/29 03:58:51;;;;;;;54.42;34.88;;;7.60;99.90;;;;;;5055008;28;20075;-79
2022/01/29 04:01:17;;;;;;;50.20;34.80;;;7.60;99.90;;;;;;5055058;28;20032;-79
2022/01/29 04:03:43;;;;;;;52.47;33.65;;;7.60;99.90;;;;;;5054973;28;20029;-79
2022/01/29 04:06:09;;;;;;;54.40;33.95;;;7.60;99.90;;;;;;5054992;28;20067;-79
2022/01/29 04:08:40;;;;;;;56.22;35.83;;;7.60;99.90;;;;;;5055132;28;20485;-79
2022/01/29 04:11:07;;;;;;;56.58;35.30;;;7.60;99.90;;;;;;5054667;28;20108;-80
2022/01/29 04:13:33;;;;;;;54.03;35.17;;;7.60;99.90;;;;;;5055079;28;20033;-80
2022/01/29 04:15:59;;;;;;;58.22;35.63;;;7.60;99.90;;;;;;5055270;28;20033;-80
2022/01/29 04:18:24;;;;;;;62.03;38.22;;;7.60;99.90;;;;;;5056199;28;20028;-79
2022/01/29 04:20:50;;;;;;;64.45;39.70;;;7.70;99.90;;;;;;5067433;28;20033;-79
2022/01/29 04:23:16;;;;;;;59.85;38.75;;;7.70;99.90;;;;;;5068935;28;20017;-80
2022/01/29 04:25:41;;;;;;;59.33;37.53;;;7.60;99.90;;;;;;5054978;28;20087;-79
2022/01/29 04:28:10;;;;;;;63.85;38.58;;;7.60;99.90;;;;;;5054422;28;20465;-79
2022/01/29 04:30:44;;;;;;;70.80;40.17;;;7.60;99.90;;;;;;5054566;28;20032;-79
2022/01/29 04:35:45;;;;;;;66.30;38.65;;;7.70;99.90;;;;;;5054268;28;20397;-78
2022/01/29 04:38:11;;;;;;;70.18;42.08;;;7.70;99.90;;;;;;5053952;28;20565;-79
2022/01/29 04:40:37;;;;;;;65.05;41.58;;;7.70;99.90;;;;;;5054152;28;20120;-79
2022/01/29 04:43:03;;;;;;;67.45;39.75;;;7.70;99.90;;;;;;5054227;28;20055;-79
2022/01/29 04:45:29;;;;;;;67.68;41.47;;;7.70;99.90;;;;;;5053827;28;20094;-79
2022/01/29 04:47:55;;;;;;;69.60;40.60;;;7.70;99.90;;;;;;5053974;28;20033;-79
2022/01/29 04:50:20;;;;;;;71.25;41.63;;;7.70;99.90;;;;;;5053800;28;20460;-79
2022/01/29 04:52:46;;;;;;;74.63;40.88;;;7.70;99.90;;;;;;5054212;28;20025;-78
2022/01/29 04:55:11;;;;;;;78.85;42.55;;;7.80;99.90;;;;;;5053767;28;20422;-79
2022/01/29 04:57:39;;;;;;;69.15;40.42;;;7.70;99.90;;;;;;5053842;28;20052;-79
2022/01/29 05:00:11;;;;;;;73.03;42.67;;;7.80;99.90;;;;;;5053885;28;20025;-78
2022/01/29 05:02:37;;;;;;;73.72;41.58;;;7.80;99.90;;;;;;5054009;28;20078;-78
2022/01/29 05:05:05;;;;;;;76.20;42.65;;;7.80;99.90;;;;;;5054131;28;20029;-78
2022/01/29 05:07:31;;;;;;;79.57;43.15;;;7.80;99.90;;;;;;5053840;28;20021;-78
2022/01/29 05:09:56;;;;;;;82.80;44.72;;;7.80;99.90;;;;;;5053836;28;20049;-78
2022/01/29 05:12:28;;;;;;;75.05;41.60;;;7.80;99.90;;;;;;5053974;28;20036;-77
2022/01/29 05:15:12;;;;;;;76.28;43.00;;;7.90;99.90;;;;;;5054349;28;20037;-78
2022/01/29 05:28:34;;;;;;;72.50;41.55;;;8.00;99.90;;;;;;5053787;28;20074;-80
2022/01/29 05:31:00;;;;;;;75.55;41.92;;;8.00;99.90;;;;;;5053631;28;20032;-79
2022/01/29 05:33:25;;;;;;;78.30;43.38;;;8.00;99.90;;;;;;5053680;28;20070;-80
2022/01/29 05:35:51;;;;;;;77.22;44.50;;;8.00;99.90;;;;;;5052859;28;20477;-80
2022/01/29 05:38:16;;;;;;;79.93;44.17;;;8.10;99.90;;;;;;5053234;28;20021;-79
2022/01/29 05:40:42;;;;;;;79.30;45.83;;;8.10;99.90;;;;;;5053227;28;20388;-79
2022/01/29 05:43:07;;;;;;;73.82;43.28;;;8.10;99.90;;;;;;5053594;28;20029;-78
2022/01/29 05:45:33;;;;;;;76.03;44.00;;;8.10;99.90;;;;;;5053244;28;20056;-79
2022/01/29 05:47:58;;;;;;;79.15;44.20;;;8.10;99.90;;;;;;5053674;28;20029;-84
2022/01/29 05:50:24;;;;;;;76.47;44.95;;;8.10;99.90;;;;;;5052918;28;20435;-81
2022/01/29 05:52:50;;;;;;;80.45;44.42;;;8.20;99.90;;;;;;5053472;28;20028;-82
2022/01/29 05:55:15;;;;;;;78.95;43.15;;;8.10;99.90;;;;;;5053295;28;20060;-80
2022/01/29 05:57:41;;;;;;;71.43;42.72;;;8.20;99.90;;;;;;5056405;28;20045;-80
2022/01/29 06:00:07;;;;;;;78.43;42.63;;;8.20;99.90;;;;;;5057509;28;20040;-80
2022/01/29 06:02:33;;;;;;;74.97;43.70;;;8.20;99.90;;;;;;5057527;28;20100;-80
2022/01/29 06:04:58;;;;;;;77.95;42.40;;;8.20;99.90;;;;;;5057387;28;20057;-80
2022/01/29 06:07:24;;;;;;;72.25;42.50;;;8.20;99.90;;;;;;5057098;28;20170;-81
2022/01/29 06:09:49;;;;;;;77.10;44.28;;;8.20;99.90;;;;;;5057631;28;20029;-80
2022/01/29 06:12:15;;;;;;;78.57;42.92;;;8.20;99.90;;;;;;5057367;28;20139;-80
2022/01/29 06:14:40;;;;;;;75.97;43.10;;;8.20;99.90;;;;;;5057500;28;20037;-80
2022/01/29 06:17:06;;;;;;;77.50;43.85;;;8.20;99.90;;;;;;5067015;28;20020;-80
2022/01/29 06:19:32;;;;;;;72.65;42.83;;;8.20;99.90;;;;;;5075573;28;20032;-80
2022/01/29 06:21:58;;;;;;;75.40;42.70;;;8.30;99.90;;;;;;5057287;28;20075;-80
2022/01/29 06:24:23;;;;;;;66.82;40.75;;;8.30;99.90;;;;;;5057060;28;20018;-80
2022/01/29 06:26:49;;;;;;;78.47;42.55;;;8.30;99.90;;;;;;5056885;28;20047;-81
2022/01/29 06:29:15;;;;;;;72.57;41.88;;;8.30;99.90;;;;;;5056504;28;20053;-80
2022/01/29 06:31:41;;;;;;;68.05;40.10;;;8.30;99.90;;;;;;5056772;28;20029;-80
2022/01/29 06:34:06;;;;;;;69.57;41.22;;;8.40;99.90;;;;;;5056478;28;20025;-80
2022/01/29 06:36:32;;;;;;;71.38;40.65;;;8.40;99.90;;;;;;5056993;28;20064;-80
2022/01/29 06:38:57;;;;;;;70.75;39.38;;;8.40;99.90;;;;;;5056824;28;20525;-80
2022/01/29 06:41:23;;;;;;;64.28;37.83;;;8.40;99.90;;;;;;5056754;28;20025;-82
2022/01/29 06:43:49;;;;;;;63.85;38.25;;;8.40;99.90;;;;;;5056373;28;20108;-81
2022/01/29 06:46:14;;;;;;;61.17;35.65;;;8.40;99.90;;;;;;5056668;28;20021;-83
2022/01/29 06:48:40;;;;;;;65.00;38.55;;;8.40;99.90;;;;;;5056883;28;20108;-83
2022/01/29 06:51:06;;;;;;;70.20;40.08;;;8.40;99.90;;;;;;5056842;28;20028;-80
2022/01/29 06:53:31;;;;;;;62.40;36.78;;;8.50;99.90;;;;;;5056434;28;20065;-77
2022/01/29 06:55:57;;;;;;;62.05;36.08;;;8.50;99.90;;;;;;5056064;28;20056;-77
2022/01/29 06:58:22;;;;;;;59.38;35.55;;;8.50;99.90;;;;;;5056505;28;20025;-77
2022/01/29 07:00:48;;;;;;;58.05;34.25;;;8.60;99.90;;;;;;5056246;28;20485;-77
2022/01/29 07:03:14;;;;;;;56.75;34.63;;;8.60;99.90;;;;;;5056028;28;20021;-75
2022/01/29 07:05:39;;;;;;;54.10;33.00;;;8.60;99.90;;;;;;5056016;28;20025;-76
2022/01/29 07:08:05;;;;;;;53.03;32.85;;;8.70;99.90;;;;;;5055777;28;20058;-76
2022/01/29 07:10:31;;;;;;;52.28;31.42;;;8.70;99.90;;;;;;5055081;28;20089;-76
2022/01/29 07:12:56;;;;;;;50.20;31.73;;;8.70;99.90;;;;;;5056004;28;20077;-74
2022/01/29 07:15:22;;;;;;;49.58;31.65;;;8.80;99.90;;;;;;5055963;28;20041;-77
2022/01/29 07:17:47;;;;;;;51.47;31.52;;;8.80;99.90;;;;;;5054917;28;20066;-75
2022/01/29 07:20:13;;;;;;;47.40;31.13;;;8.80;99.90;;;;;;5055310;28;20033;-75
2022/01/29 07:22:39;;;;;;;50.33;30.65;;;8.80;99.90;;;;;;5055281;28;20035;-76
2022/01/29 07:25:06;;;;;;;48.35;30.42;;;8.80;99.90;;;;;;5055950;28;20437;-78
2022/01/29 07:27:32;;;;;;;42.28;28.25;;;8.80;99.90;;;;;;5055367;28;20025;-78
2022/01/29 07:29:58;;;;;;;42.75;27.70;;;8.80;99.90;;;;;;5055167;28;20028;-77
2022/01/29 07:32:23;;;;;;;39.30;26.75;;;8.90;99.90;;;;;;5055014;28;20023;-78
2022/01/29 07:34:49;;;;;;;42.35;26.38;;;8.90;99.90;;;;;;5055081;28;20086;-77
2022/01/29 07:37:15;;;;;;;38.10;25.17;;;8.90;99.90;;;;;;5054979;28;20032;-78
2022/01/29 07:39:41;;;;;;;41.08;26.67;;;8.90;99.90;;;;;;5071950;28;20016;-80
2022/01/29 07:42:06;;;;;;;36.67;24.27;;;9.00;99.90;;;;;;5075826;28;20456;-79
2022/01/29 07:44:32;;;;;;;38.40;24.70;;;9.00;99.90;;;;;;5056840;28;20032;-78
2022/01/29 07:46:58;;;;;;;37.05;23.77;;;9.00;99.90;;;;;;5055130;28;20111;-79
2022/01/29 07:49:23;;;;;;;33.17;22.10;;;9.00;99.90;;;;;;5055415;28;20101;-78
2022/01/29 07:51:49;;;;;;;33.05;21.73;;;9.00;99.90;;;;;;5055220;28;20028;-77
2022/01/29 07:54:15;;;;;;;33.13;20.70;;;9.00;99.90;;;;;;5055283;28;20021;-77
2022/01/29 07:56:40;;;;;;;29.15;20.23;;;9.00;99.90;;;;;;5054754;28;20413;-77
2022/01/29 07:59:06;;;;;;;35.33;21.75;;;9.00;99.90;;;;;;5055025;28;20035;-76
2022/01/29 08:01:32;;;;;;;32.75;19.02;;;9.00;99.90;;;;;;5054672;28;20040;-77
2022/01/29 08:03:57;;;;;;;29.20;19.17;;;9.00;99.90;;;;;;5055198;28;20102;-76
2022/01/29 08:06:23;;;;;;;37.78;18.85;;;9.00;99.90;;;;;;5054493;28;20017;-77
2022/01/29 08:08:50;;;;;;;29.60;19.00;;;9.00;99.90;;;;;;5054753;28;20040;-77
2022/01/29 08:11:16;;;;;;;29.48;19.13;;;9.00;99.90;;;;;;5055931;28;20084;-76
2022/01/29 08:13:43;;;;;;;29.42;17.83;;;9.00;99.90;;;;;;5056831;28;20421;-78
2022/01/29 08:16:09;;;;;;;28.42;17.73;;;9.00;99.90;;;;;;5054497;28;20040;-77
2022/01/29 08:18:35;;;;;;;30.23;18.73;;;9.00;99.90;;;;;;5054120;28;20498;-78
2022/01/29 08:21:00;;;;;;;27.40;17.73;;;9.10;99.90;;;;;;5053970;28;20033;-77
2022/01/29 08:23:26;;;;;;;23.80;16.95;;;9.10;99.90;;;;;;5054924;28;20048;-79
2022/01/29 08:25:53;;;;;;;29.92;18.88;;;9.00;99.90;;;;;;5054780;28;20041;-78
2022/01/29 08:28:18;;;;;;;28.40;18.27;;;9.10;99.90;;;;;;5054486;28;20437;-77
2022/01/29 08:30:44;;;;;;;25.90;17.27;;;9.10;99.90;;;;;;5053889;28;20071;-77
2022/01/29 08:33:16;;;;;;;29.00;18.27;;;9.10;99.90;;;;;;5054124;28;20021;-80
2022/01/29 08:35:42;;;;;;;28.17;19.52;;;9.10;99.90;;;;;;5054526;28;20041;-76
2022/01/29 08:38:07;;;;;;;32.13;19.10;;;9.10;99.90;;;;;;5054525;28;20021;-77
2022/01/29 08:40:33;;;;;;;30.67;18.75;;;9.10;99.90;;;;;;5054022;28;20043;-78
2022/01/29 08:42:59;;;;;;;27.60;19.15;;;9.10;99.90;;;;;;5054598;28;20020;-78
2022/01/29 08:45:25;;;;;;;32.78;19.35;;;9.20;99.90;;;;;;5053874;28;20051;-75
2022/01/29 08:47:50;;;;;;;28.80;18.38;;;9.20;99.90;;;;;;5053989;28;20021;-75
2022/01/29 08:50:16;;;;;;;29.60;19.50;;;9.10;99.90;;;;;;5053900;28;20109;-76
2022/01/29 08:52:42;;;;;;;27.90;18.70;;;9.20;99.90;;;;;;5054096;28;20460;-79
2022/01/29 08:55:09;;;;;;;30.55;19.55;;;9.20;99.90;;;;;;5054227;28;20455;-79
2022/01/29 08:57:35;;;;;;;31.40;19.27;;;9.20;99.90;;;;;;5053974;28;20056;-80
2022/01/29 09:00:01;;;;;;;29.65;19.10;;;9.20;99.90;;;;;;5053912;28;20025;-78
2022/01/29 09:02:27;;;;;;;28.83;18.98;;;9.30;99.90;;;;;;5054085;28;20055;-77
2022/01/29 09:04:54;;;;;;;26.73;18.50;;;9.30;99.90;;;;;;5053832;28;20037;-80
2022/01/29 09:07:20;;;;;;;30.02;18.88;;;9.30;99.90;;;;;;5054422;28;20033;-75
2022/01/29 09:09:46;;;;;;;24.48;17.75;;;9.30;99.90;;;;;;5054619;28;20159;-75
2022/01/29 09:12:13;;;;;;;26.33;18.00;;;9.30;99.90;;;;;;5053414;28;20071;-77
2022/01/29 09:14:40;;;;;;;28.65;18.50;;;9.30;99.90;;;;;;5053815;28;20411;-76
2022/01/29 09:17:06;;;;;;;27.63;17.95;;;9.30;99.90;;;;;;5053676;28;20114;-76
2022/01/29 09:19:32;;;;;;;26.10;16.83;;;9.30;99.90;;;;;;5053657;28;20071;-77
2022/01/29 09:21:58;;;;;;;26.85;16.80;;;9.30;99.90;;;;;;5053399;28;20032;-76
2022/01/29 09:24:23;;;;;;;25.30;17.58;;;9.30;99.90;;;;;;5053074;28;20021;-77
2022/01/29 09:26:49;;;;;;;28.05;18.13;;;9.30;99.90;;;;;;5053222;28;20039;-75
2022/01/29 09:29:15;;;;;;;26.02;16.70;;;9.40;99.90;;;;;;5053175;28;20033;-77
2022/01/29 09:31:41;;;;;;;25.88;16.20;;;9.30;99.90;;;;;;5053169;28;20032;-76
2022/01/29 09:34:06;;;;;;;28.58;16.95;;;9.40;99.90;;;;;;5053495;28;20036;-77
2022/01/29 09:36:32;;;;;;;20.23;14.18;;;9.40;99.90;;;;;;5053236;28;20041;-76
2022/01/29 09:38:57;;;;;;;23.80;15.43;;;9.40;99.90;;;;;;5053171;28;20020;-76
2022/01/29 09:41:25;;;;;;;22.33;14.98;;;9.40;99.90;;;;;;5063693;28;20033;-76
2022/01/29 09:43:55;;;;;;;19.58;13.45;;;9.40;99.90;;;;;;5062620;28;20103;-77
2022/01/29 09:46:22;;;;;;;19.00;13.27;;;9.50;99.90;;;;;;5063670;28;20029;-78
2022/01/29 09:48:48;;;;;;;19.65;13.25;;;9.50;99.90;;;;;;5061546;28;20021;-78
2022/01/29 09:51:15;;;;;;;22.45;13.95;;;9.50;99.90;;;;;;5063269;28;20047;-78
2022/01/29 09:53:45;;;;;;;21.10;12.98;;;9.60;99.90;;;;;;5063101;28;20025;-78
2022/01/29 09:56:13;;;;;;;18.92;12.10;;;9.60;99.90;;;;;;5062057;28;20518;-79
2022/01/29 09:58:39;;;;;;;16.25;10.75;;;9.60;99.90;;;;;;5063441;28;20048;-77
2022/01/29 10:01:05;;;;;;;18.90;11.50;;;9.60;99.90;;;;;;5059283;28;20073;-78
2022/01/29 10:03:31;;;;;;;16.45;10.30;;;9.60;99.90;;;;;;5062688;28;20107;-78
2022/01/29 10:05:57;;;;;;;14.75;9.68;;;9.70;99.90;;;;;;5064060;28;20012;-77
2022/01/29 10:08:24;;;;;;;13.00;10.15;;;9.70;99.90;;;;;;5062027;28;20017;-77
2022/01/29 10:10:59;;;;;;;12.20;8.85;;;9.60;99.90;;;;;;5062190;28;20499;-78
2022/01/29 10:13:31;;;;;;;15.60;9.20;;;9.70;99.90;;;;;;5065319;28;20498;-81
2022/01/29 10:16:23;;;;;;;13.93;8.13;;;9.70;99.90;;;;;;5072890;28;20483;-81
2022/01/29 10:19:05;;;;;;;15.35;7.35;;;9.70;99.90;;;;;;5073341;28;20044;-77
2022/01/29 10:21:46;;;;;;;13.77;7.50;;;9.70;99.90;;;;;;5073045;28;20160;-76
2022/01/29 10:24:14;;;;;;;13.43;6.63;;;9.80;99.90;;;;;;5073216;28;20036;-79
2022/01/29 10:26:48;;;;;;;14.85;6.85;;;9.80;99.90;;;;;;5072758;28;20029;-79
2022/01/29 10:29:22;;;;;;;13.23;6.13;;;9.80;99.90;;;;;;5071165;28;20415;-79
2022/01/29 10:31:53;;;;;;;12.63;5.90;;;9.80;99.90;;;;;;5070963;28;20480;-84
2022/01/29 10:34:27;;;;;;;8.43;4.95;;;9.80;99.90;;;;;;5070916;28;20040;-79
2022/01/29 10:37:15;;;;;;;14.65;4.65;;;9.80;99.90;;;;;;5070971;28;20035;-79
2022/01/29 10:39:41;;;;;;;11.10;4.60;;;9.90;99.90;;;;;;5071212;28;20031;-78
2022/01/29 10:42:21;;;;;;;8.68;4.13;;;9.90;99.90;;;;;;5071888;28;20021;-80
2022/01/29 10:44:50;;;;;;;8.05;3.78;;;9.90;99.90;;;;;;5077027;28;20047;-80
2022/01/29 10:47:16;;;;;;;11.02;4.50;;;9.90;99.90;;;;;;5076751;28;20032;-79
2022/01/29 10:49:55;;;;;;;12.30;4.60;;;9.90;99.90;;;;;;5077199;28;20044;-80
2022/01/29 10:52:32;;;;;;;9.70;4.80;;;9.90;99.90;;;;;;5076536;28;20027;-79
2022/01/29 10:55:01;;;;;;;9.27;4.50;;;10.00;99.90;;;;;;5076699;28;20025;-79
2022/01/29 10:57:34;;;;;;;11.63;4.53;;;10.00;99.90;;;;;;5076013;28;20044;-79
2022/01/29 11:00:01;;;;;;;8.30;4.22;;;10.00;99.90;;;;;;5078440;28;20439;-78
2022/01/29 11:02:30;;;;;;;9.48;4.45;;;10.10;99.90;;;;;;5083862;28;20032;-80
2022/01/29 11:04:56;;;;;;;9.23;4.25;;;10.10;99.90;;;;;;5076188;28;20029;-80
2022/01/29 11:07:27;;;;;;;10.80;5.00;;;10.10;99.90;;;;;;5076793;28;20021;-85
2022/01/29 11:09:53;;;;;;;11.77;3.88;;;10.10;99.90;;;;;;5076052;28;20028;-82
2022/01/29 11:12:24;;;;;;;11.73;4.30;;;10.10;99.90;;;;;;5076017;28;20357;-79
2022/01/29 11:14:53;;;;;;;10.00;3.50;;;10.10;99.90;;;;;;5070324;28;20033;-79
2022/01/29 11:17:20;;;;;;;9.23;2.95;;;10.20;99.90;;;;;;5057147;28;20017;-76
2022/01/29 11:19:46;;;;;;;8.90;3.05;;;10.20;99.90;;;;;;5055830;28;20508;-78
2022/01/29 11:22:13;;;;;;;10.73;3.20;;;10.20;99.90;;;;;;5055889;28;20388;-78
2022/01/29 11:24:43;;;;;;;8.30;2.50;;;10.20;99.90;;;;;;5055832;28;20025;-77
2022/01/29 11:27:29;;;;;;;11.77;2.47;;;10.30;99.90;;;;;;5055622;28;20108;-77
2022/01/29 11:30:00;;;;;;;8.52;2.47;;;10.20;99.90;;;;;;5055685;28;20426;-77
2022/01/29 11:32:28;;;;;;;7.88;2.10;;;10.30;99.90;;;;;;5055856;28;20029;-79
2022/01/29 11:35:04;;;;;;;7.38;2.22;;;10.30;99.90;;;;;;5055743;28;20037;-78
2022/01/29 11:37:51;;;;;;;7.07;1.80;;;10.30;99.90;;;;;;5055518;28;20032;-78
2022/01/29 11:40:24;;;;;;;6.80;1.95;;;10.30;99.90;;;;;;5055312;28;20024;-78
2022/01/29 11:43:04;;;;;;;7.97;2.10;;;10.30;99.90;;;;;;5060564;28;20025;-78
2022/01/29 11:45:40;;;;;;;9.25;1.80;;;10.30;99.90;;;;;;5063268;28;20029;-75
2022/01/29 11:48:19;;;;;;;6.75;1.90;;;10.40;99.90;;;;;;5055301;28;20048;-76
2022/01/29 11:50:45;;;;;;;8.10;1.67;;;10.40;99.90;;;;;;5055167;28;20021;-78
2022/01/29 11:53:12;;;;;;;11.55;2.25;;;10.40;99.90;;;;;;5054836;28;20071;-76
2022/01/29 11:55:42;;;;;;;12.60;1.52;;;10.50;99.90;;;;;;5053981;28;20484;-75
2022/01/29 11:58:15;;;;;;;6.03;1.55;;;10.40;99.90;;;;;;5055745;28;20465;-77
2022/01/29 12:00:42;;;;;;;13.68;2.47;;;10.50;99.90;;;;;;5057058;28;20480;-79
2022/01/29 12:03:28;;;;;;;8.90;1.52;;;10.50;99.90;;;;;;5054731;28;20039;-77
2022/01/29 12:08:40;;;;;;;7.82;1.40;;;10.50;99.90;;;;;;5065285;28;20491;-75
2022/01/29 12:11:13;;;;;;;9.40;1.30;;;10.60;99.90;;;;;;5054984;28;20033;-76
2022/01/29 12:13:42;;;;;;;8.43;1.30;;;10.60;99.90;;;;;;5054728;28;20029;-77
2022/01/29 12:16:47;;;;;;;4.28;1.00;;;10.60;99.90;;;;;;5054828;28;20695;-77
2022/01/29 12:19:45;;;;;;;6.13;1.23;;;10.60;99.90;;;;;;5054661;28;20029;-77
2022/01/29 12:22:23;;;;;;;6.32;1.05;;;10.70;99.90;;;;;;5054771;28;20036;-76
2022/01/29 12:24:56;;;;;;;4.90;1.40;;;10.70;99.90;;;;;;5054666;28;20110;-76
2022/01/29 12:27:23;;;;;;;7.68;1.38;;;10.70;99.90;;;;;;5054633;28;20025;-77
2022/01/29 12:29:49;;;;;;;8.98;1.40;;;10.70;99.90;;;;;;5054333;28;20036;-77
2022/01/29 12:32:15;;;;;;;6.18;1.20;;;10.80;99.90;;;;;;5054465;28;20022;-77
2022/01/29 12:34:41;;;;;;;5.28;1.55;;;10.70;99.90;;;;;;5054545;28;20534;-77
2022/01/29 12:37:15;;;;;;;8.30;1.10;;;10.70;99.90;;;;;;5054217;28;20391;-77
2022/01/29 12:39:43;;;;;;;6.82;1.35;;;10.80;99.90;;;;;;5054266;28;20376;-77
2022/01/29 12:44:43;;;;;;;6.65;1.27;;;10.80;99.90;;;;;;5054079;28;20107;-76
2022/01/29 12:47:26;;;;;;;10.75;1.20;;;10.80;99.90;;;;;;5054519;28;20032;-77
2022/01/29 12:49:52;;;;;;;5.25;1.35;;;10.80;99.90;;;;;;5054290;28;20039;-75
2022/01/29 12:52:18;;;;;;;5.55;1.38;;;10.80;99.90;;;;;;5054099;28;20427;-76
2022/01/29 12:54:52;;;;;;;7.45;1.55;;;10.90;99.90;;;;;;5053980;28;20476;-75
2022/01/29 12:57:19;;;;;;;5.85;1.20;;;10.90;99.90;;;;;;5053689;28;20052;-77
2022/01/29 12:59:44;;;;;;;8.02;1.38;;;10.90;99.90;;;;;;5054031;28;20029;-77